หน้าหลัก
METAR-TAF:

METAR-TAF

ท่าอากาศยาน :

El Palmar

Santa Ana, เอลซัลวาดอร์

ละติจูด: 13-59N, ลองจิจูด: 089-34W, ความสูง: 725 ม.

การสังเกตสภาพอากาศปัจจุบัน

รายงานได้ทำขึ้นเมื่อ 11 ชั่วโมงและ 47 นาทีที่แล้ว ณ เวลา 22:50 UTC
ลม 3 นอตจากตะวันออก
อุณหภูมิ 24°C
ความชื้น 100%
ความกดอากาศ 1012 hPa
ทัศนวิสัย 10 กม. หรือมากกว่า
มีเมฆกระจายเป็นบางส่วนที่ความสูง 1700 ฟุต

METAR: MSSA 162250Z 09003KT 9999 SCT017 24/24 Q1011 A2987

เวลา: 04:37 (10:37 UTC)


TAF: หายไป

สังเกตการณ์สภาพอากาศและพยากรณ์อากาศของสนามบินมากกว่า 4000 แห่ง (รายงาน METAR และ TAF).

สถานีที่ดูได้จะแสดงไว้ด้วยจุดสีเหลืองและสีแดงบนแผนที่.

เลื่อนเมาส์ไปเหนือจุดเพื่อดูชื่อสถานี.

แล้วคลิกเพื่อดูสังเกตการณ์และการพยากรณ์สภาพอากาศ.

ในการเปลี่ยนแผนที่: คลิกที่ปุ่มสีเขียวที่มีกากบาทสีดำเพื่อซูมเข้า; ที่ปุ่มสีเขียวที่มีขีดเพื่อซูมออก; หรือที่ลูกศรสีเขียวเพื่อไปยังแผนที่ที่อยู่ติดกัน.


METAR-TAF: